Time;durP1;ratioP1;P1;durP2;ratioP2;P2;SDS_P1;SDS_P2;PMS_P1;PMS_P2;Temp;Humidity;BMP_temperature;BMP_pressure;BME280_temperature;BME280_humidity;BME280_pressure;Samples;Min_cycle;Max_cycle;Signal;HPM_P1;HPM_P2
2022/10/29 00:00:52;;;;;;;11.50;5.83;;;16.00;99.90;;;;;;5073635;28;20537;-53
2022/10/29 00:03:19;;;;;;;11.63;5.90;;;15.90;99.90;;;;;;5068377;28;20240;-58
2022/10/29 00:06:01;;;;;;;12.27;5.57;;;15.90;99.90;;;;;;5069392;28;20204;-53
2022/10/29 00:08:31;;;;;;;8.47;4.50;;;15.90;99.90;;;;;;5068110;28;20210;-54
2022/10/29 00:11:24;;;;;;;14.37;6.40;;;15.90;99.90;;;;;;5066961;28;20237;-54
2022/10/29 00:13:57;;;;;;;12.87;6.90;;;15.70;99.90;;;;;;5065239;28;20202;-54
2022/10/29 00:16:34;;;;;;;11.87;6.23;;;15.70;99.90;;;;;;5069318;28;20574;-54
2022/10/29 00:19:01;;;;;;;14.43;7.37;;;15.70;99.90;;;;;;5068107;28;20208;-54
2022/10/29 00:21:28;;;;;;;12.70;5.60;;;15.60;99.90;;;;;;5068347;28;20214;-54
2022/10/29 00:23:56;;;;;;;16.47;5.97;;;15.70;99.90;;;;;;5068293;28;20195;-54
2022/10/29 00:26:24;;;;;;;12.73;6.57;;;15.60;99.90;;;;;;5057989;28;20209;-54
2022/10/29 00:28:52;;;;;;;14.90;6.30;;;15.60;99.90;;;;;;5067451;28;20202;-54
2022/10/29 00:31:19;;;;;;;10.37;5.67;;;15.60;99.90;;;;;;5067911;28;20214;-54
2022/10/29 00:33:46;;;;;;;11.60;5.87;;;15.60;99.90;;;;;;5068156;28;20226;-54
2022/10/29 00:36:15;;;;;;;14.10;6.40;;;15.60;99.90;;;;;;5076131;28;20314;-55
2022/10/29 00:38:42;;;;;;;12.50;6.53;;;15.60;99.90;;;;;;5068864;28;20681;-53
2022/10/29 00:41:11;;;;;;;11.13;5.33;;;15.50;99.90;;;;;;5067983;28;20550;-54
2022/10/29 00:43:45;;;;;;;10.20;5.43;;;15.50;99.90;;;;;;5064631;28;20290;-53
2022/10/29 00:46:16;;;;;;;13.27;5.53;;;15.40;99.90;;;;;;5067908;28;20286;-54
2022/10/29 00:48:47;;;;;;;13.33;5.77;;;15.40;99.90;;;;;;5067439;28;20661;-52
2022/10/29 00:51:15;;;;;;;10.00;5.17;;;15.40;99.90;;;;;;5084954;28;20207;-53
2022/10/29 00:53:54;;;;;;;7.90;3.83;;;15.30;99.90;;;;;;5067938;28;20287;-54
2022/10/29 00:56:23;;;;;;;13.37;5.07;;;15.00;99.90;;;;;;5067921;28;20197;-53
2022/10/29 00:58:50;;;;;;;7.23;4.00;;;15.10;99.90;;;;;;5066659;28;20290;-53
2022/10/29 01:01:17;;;;;;;12.23;4.90;;;15.10;99.90;;;;;;5067471;28;20693;-53
2022/10/29 01:03:45;;;;;;;9.40;5.33;;;15.10;99.90;;;;;;5067665;28;20246;-53
2022/10/29 01:06:12;;;;;;;10.27;4.60;;;15.10;99.90;;;;;;5068575;28;20224;-56
2022/10/29 01:08:39;;;;;;;9.77;4.43;;;15.10;99.90;;;;;;5063849;28;20208;-54
2022/10/29 01:11:22;;;;;;;10.13;4.67;;;15.00;99.90;;;;;;5067704;28;20581;-53
2022/10/29 01:14:20;;;;;;;7.63;4.60;;;14.90;99.90;;;;;;5067355;28;20201;-53
2022/10/29 01:17:24;;;;;;;8.73;4.80;;;14.90;99.90;;;;;;5068191;28;20286;-53
2022/10/29 01:20:22;;;;;;;10.47;5.30;;;14.90;99.90;;;;;;5061195;28;20651;-55
2022/10/29 01:23:07;;;;;;;8.30;5.00;;;14.90;99.90;;;;;;5067298;28;20213;-53
2022/10/29 01:25:51;;;;;;;11.50;4.87;;;14.90;99.90;;;;;;5061873;28;20242;-54
2022/10/29 01:28:55;;;;;;;8.23;5.67;;;14.90;99.90;;;;;;5067712;28;20204;-54
2022/10/29 01:31:28;;;;;;;9.10;6.10;;;14.90;99.90;;;;;;5062276;28;20198;-54
2022/10/29 01:34:10;;;;;;;19.80;7.43;;;14.90;99.90;;;;;;5068252;28;20754;-54
2022/10/29 01:37:16;;;;;;;9.77;6.97;;;14.90;99.90;;;;;;5073804;28;20571;-53
2022/10/29 01:39:49;;;;;;;7.33;4.90;;;14.90;99.90;;;;;;5066028;28;20202;-55
2022/10/29 01:42:23;;;;;;;10.73;5.20;;;14.90;99.90;;;;;;5071376;28;20213;-55
2022/10/29 01:44:57;;;;;;;10.07;5.47;;;14.90;99.90;;;;;;5070610;28;20204;-53
2022/10/29 01:47:29;;;;;;;8.93;6.30;;;14.80;99.90;;;;;;5071416;28;20213;-53
2022/10/29 01:50:00;;;;;;;14.70;7.93;;;14.80;99.90;;;;;;5070309;28;20200;-54
2022/10/29 01:52:31;;;;;;;11.03;6.77;;;14.80;99.90;;;;;;5071550;28;20209;-54
2022/10/29 01:54:58;;;;;;;9.50;6.00;;;14.80;99.90;;;;;;5071796;28;20328;-57
2022/10/29 01:57:32;;;;;;;10.60;6.93;;;14.90;99.90;;;;;;5071613;28;20293;-54
2022/10/29 02:00:07;;;;;;;12.20;6.57;;;14.90;99.90;;;;;;5069815;28;20326;-54
2022/10/29 02:03:21;;;;;;;10.77;7.07;;;14.80;99.90;;;;;;5070920;28;20316;-53
2022/10/29 02:05:56;;;;;;;9.30;7.27;;;14.80;99.90;;;;;;5061671;28;20206;-59
2022/10/29 02:08:41;;;;;;;12.60;7.70;;;14.80;99.90;;;;;;5070778;28;20679;-55
2022/10/29 02:11:21;;;;;;;12.30;7.13;;;14.80;99.90;;;;;;5073146;28;20223;-53
2022/10/29 02:14:03;;;;;;;9.60;6.97;;;14.70;99.90;;;;;;5071817;28;20797;-55
2022/10/29 02:16:31;;;;;;;9.73;7.80;;;14.70;99.90;;;;;;5074154;28;20755;-55
2022/10/29 02:18:59;;;;;;;12.63;6.77;;;14.70;99.90;;;;;;5076002;28;20207;-54
2022/10/29 02:21:25;;;;;;;9.40;6.60;;;14.70;99.90;;;;;;5091776;28;20204;-55
2022/10/29 02:23:52;;;;;;;11.80;7.27;;;14.70;99.90;;;;;;5074486;28;20205;-54
2022/10/29 02:26:20;;;;;;;9.10;5.90;;;14.60;99.90;;;;;;5060238;28;20214;-54
2022/10/29 02:28:47;;;;;;;8.37;5.80;;;14.70;99.90;;;;;;5069949;28;20213;-54
2022/10/29 02:31:14;;;;;;;9.70;6.73;;;14.60;99.90;;;;;;5070444;28;20206;-55
2022/10/29 02:33:41;;;;;;;12.80;7.00;;;14.60;99.90;;;;;;5065994;28;20215;-54
2022/10/29 02:36:08;;;;;;;12.60;6.67;;;14.60;99.90;;;;;;5070283;28;20227;-54
2022/10/29 02:38:34;;;;;;;7.37;6.10;;;14.60;99.90;;;;;;5070510;28;20215;-54
2022/10/29 02:41:01;;;;;;;9.00;5.73;;;14.60;99.90;;;;;;5069992;28;20715;-54
2022/10/29 02:43:28;;;;;;;12.13;6.73;;;14.60;99.90;;;;;;5069688;28;20729;-54
2022/10/29 02:46:11;;;;;;;12.20;6.97;;;14.60;99.90;;;;;;5069475;28;20615;-54
2022/10/29 02:48:38;;;;;;;13.57;6.63;;;14.60;99.90;;;;;;5071001;28;20317;-55
2022/10/29 02:51:04;;;;;;;12.53;6.63;;;14.50;99.90;;;;;;5070463;28;20199;-53
2022/10/29 02:53:31;;;;;;;11.17;6.87;;;14.50;99.90;;;;;;5071140;28;20215;-54
2022/10/29 02:55:58;;;;;;;8.90;6.67;;;14.60;99.90;;;;;;5071155;28;20208;-53
2022/10/29 02:58:25;;;;;;;8.97;5.60;;;14.60;99.90;;;;;;5064300;28;20208;-55
2022/10/29 03:00:52;;;;;;;6.53;5.57;;;14.50;99.90;;;;;;5068414;28;20219;-52
2022/10/29 03:03:19;;;;;;;9.80;6.00;;;14.50;99.90;;;;;;5069655;28;20244;-53
2022/10/29 03:05:46;;;;;;;17.50;7.40;;;14.50;99.90;;;;;;5070138;28;20240;-52
2022/10/29 03:08:15;;;;;;;14.80;7.87;;;14.50;99.90;;;;;;5070457;28;20659;-53
2022/10/29 03:10:42;;;;;;;13.00;7.97;;;14.50;99.90;;;;;;5069514;28;21075;-54
2022/10/29 03:13:09;;;;;;;14.57;8.00;;;14.60;99.90;;;;;;5069339;28;20267;-54
2022/10/29 03:15:36;;;;;;;12.83;7.63;;;14.60;99.90;;;;;;5066774;28;20209;-53
2022/10/29 03:18:03;;;;;;;13.23;8.87;;;14.70;99.90;;;;;;5069694;28;20210;-53
2022/10/29 03:20:30;;;;;;;13.80;9.50;;;14.70;99.90;;;;;;5069773;28;20696;-54
2022/10/29 03:22:57;;;;;;;15.63;9.57;;;14.80;99.90;;;;;;5069442;28;20728;-55
2022/10/29 03:25:24;;;;;;;13.60;8.87;;;14.80;99.90;;;;;;5058994;28;20201;-55
2022/10/29 03:27:50;;;;;;;15.90;9.33;;;14.70;99.90;;;;;;5070298;28;20283;-54
2022/10/29 03:30:17;;;;;;;14.63;8.93;;;14.80;99.90;;;;;;5066808;28;20204;-55
2022/10/29 03:32:46;;;;;;;18.23;9.70;;;14.70;99.90;;;;;;5068737;28;20382;-53
2022/10/29 03:35:14;;;;;;;13.57;9.00;;;14.60;99.90;;;;;;5069373;28;20598;-55
2022/10/29 03:37:41;;;;;;;12.87;8.40;;;14.60;99.90;;;;;;5069647;28;20299;-54
2022/10/29 03:40:09;;;;;;;13.50;9.00;;;14.60;99.90;;;;;;5069005;28;20200;-56
2022/10/29 03:42:37;;;;;;;14.03;8.70;;;14.80;99.90;;;;;;5068423;28;20213;-53
2022/10/29 03:45:04;;;;;;;16.03;9.37;;;14.80;99.90;;;;;;5066612;28;20331;-55
2022/10/29 03:47:32;;;;;;;17.00;9.37;;;14.70;99.90;;;;;;5069066;28;20350;-54
2022/10/29 03:49:58;;;;;;;15.40;8.87;;;14.70;99.90;;;;;;5068099;28;20570;-53
2022/10/29 03:52:26;;;;;;;12.67;9.60;;;14.80;99.90;;;;;;5067629;28;20204;-54
2022/10/29 03:54:52;;;;;;;15.17;8.90;;;14.80;99.90;;;;;;5071976;28;20215;-54
2022/10/29 03:57:19;;;;;;;15.33;8.27;;;14.90;99.90;;;;;;5074499;28;20215;-54
2022/10/29 03:59:47;;;;;;;16.03;8.87;;;14.80;99.90;;;;;;5071757;28;20537;-54
2022/10/29 04:02:18;;;;;;;15.40;8.20;;;14.90;99.90;;;;;;5080394;28;20320;-54
2022/10/29 04:04:46;;;;;;;15.03;9.57;;;14.90;99.90;;;;;;5068713;28;20563;-55
2022/10/29 04:07:13;;;;;;;15.43;9.40;;;14.90;99.90;;;;;;5068677;28;20212;-54
2022/10/29 04:09:39;;;;;;;11.60;8.57;;;14.90;99.90;;;;;;5068604;28;20264;-54
2022/10/29 04:12:07;;;;;;;17.23;9.63;;;14.90;99.90;;;;;;5068987;28;20302;-54
2022/10/29 04:14:34;;;;;;;19.60;9.10;;;14.90;99.90;;;;;;5067950;28;20711;-54
2022/10/29 04:17:00;;;;;;;17.43;9.73;;;14.80;99.90;;;;;;5067063;28;20263;-54
2022/10/29 04:19:27;;;;;;;15.67;9.10;;;14.80;99.90;;;;;;5067053;28;20207;-54
2022/10/29 04:21:54;;;;;;;15.30;9.43;;;14.90;99.90;;;;;;5068900;28;20211;-55
2022/10/29 04:24:41;;;;;;;14.03;8.70;;;14.90;99.90;;;;;;5067748;28;20210;-54
2022/10/29 04:27:27;;;;;;;17.20;9.23;;;14.90;99.90;;;;;;5067550;28;20244;-55
2022/10/29 04:30:14;;;;;;;12.23;8.33;;;14.90;99.90;;;;;;5067796;28;20204;-54
2022/10/29 04:32:41;;;;;;;13.67;8.50;;;14.90;99.90;;;;;;5068988;28;20232;-55
2022/10/29 04:35:08;;;;;;;15.90;9.00;;;14.80;99.90;;;;;;5068093;28;20205;-54
2022/10/29 04:37:35;;;;;;;15.63;9.40;;;14.70;99.90;;;;;;5068494;28;20203;-53
2022/10/29 04:40:02;;;;;;;11.27;8.30;;;14.80;99.90;;;;;;5065927;28;20206;-55
2022/10/29 04:42:29;;;;;;;13.93;8.20;;;14.80;99.90;;;;;;5068394;28;20216;-55
2022/10/29 04:44:55;;;;;;;17.23;9.47;;;14.80;99.90;;;;;;5067494;28;20211;-54
2022/10/29 04:47:22;;;;;;;15.20;9.03;;;14.80;99.90;;;;;;5067933;28;20202;-55
2022/10/29 04:49:49;;;;;;;14.43;8.83;;;14.80;99.90;;;;;;5068901;28;20205;-54
2022/10/29 04:52:16;;;;;;;11.77;8.73;;;14.80;99.90;;;;;;5068306;28;20200;-55
2022/10/29 04:54:42;;;;;;;18.17;9.87;;;14.80;99.90;;;;;;5067970;28;20249;-54
2022/10/29 04:57:09;;;;;;;15.03;9.17;;;14.80;99.90;;;;;;5067731;28;20729;-55
2022/10/29 04:59:36;;;;;;;15.53;9.70;;;14.70;99.90;;;;;;5067083;28;20204;-54
2022/10/29 05:02:02;;;;;;;15.20;9.47;;;14.70;99.90;;;;;;5066685;28;20603;-54
2022/10/29 05:04:29;;;;;;;15.30;9.63;;;14.70;99.90;;;;;;5067725;28;20215;-55
2022/10/29 05:06:56;;;;;;;14.57;9.53;;;14.70;99.90;;;;;;5068275;28;20210;-55
2022/10/29 05:09:23;;;;;;;11.53;8.77;;;14.80;99.90;;;;;;5071071;28;20199;-56
2022/10/29 05:11:49;;;;;;;14.43;9.33;;;14.80;99.90;;;;;;5060247;28;20206;-54
2022/10/29 05:14:16;;;;;;;16.30;10.00;;;14.70;99.90;;;;;;5070723;28;20207;-55
2022/10/29 05:16:43;;;;;;;11.83;8.97;;;14.70;99.90;;;;;;5070581;28;20201;-55
2022/10/29 05:19:09;;;;;;;14.90;9.17;;;14.70;99.90;;;;;;5071898;28;20223;-55
2022/10/29 05:21:37;;;;;;;19.77;9.90;;;14.80;99.90;;;;;;5073622;28;20203;-54
2022/10/29 05:24:04;;;;;;;16.27;9.73;;;14.80;99.90;;;;;;5071559;28;20210;-54
2022/10/29 05:26:31;;;;;;;14.50;10.00;;;14.70;99.90;;;;;;5062488;28;20692;-53
2022/10/29 05:28:58;;;;;;;15.27;9.33;;;14.70;99.90;;;;;;5070747;28;20226;-54
2022/10/29 05:31:25;;;;;;;12.50;9.50;;;14.80;99.90;;;;;;5070670;28;20284;-53
2022/10/29 05:33:51;;;;;;;18.50;9.60;;;14.80;99.90;;;;;;5072025;28;20205;-55
2022/10/29 05:36:21;;;;;;;19.50;10.00;;;14.80;99.90;;;;;;5071898;28;20209;-54
2022/10/29 05:38:48;;;;;;;18.77;10.83;;;14.80;99.90;;;;;;5070165;28;20563;-56
2022/10/29 05:41:15;;;;;;;18.10;9.87;;;14.80;99.90;;;;;;5071970;28;20575;-56
2022/10/29 05:43:42;;;;;;;16.87;10.03;;;14.70;99.90;;;;;;5085862;28;20219;-54
2022/10/29 05:46:08;;;;;;;16.63;10.07;;;14.70;99.90;;;;;;5079658;28;20691;-54
2022/10/29 05:48:35;;;;;;;20.93;10.27;;;14.80;99.90;;;;;;5073248;28;20212;-54
2022/10/29 05:51:03;;;;;;;15.87;10.20;;;14.70;99.90;;;;;;5071612;28;20196;-54
2022/10/29 05:53:30;;;;;;;14.73;9.67;;;14.70;99.90;;;;;;5083700;28;20295;-57
2022/10/29 05:55:58;;;;;;;15.07;10.37;;;14.80;99.90;;;;;;5071864;28;20211;-54
2022/10/29 05:58:24;;;;;;;17.03;10.43;;;14.80;99.90;;;;;;5070925;28;20212;-53
2022/10/29 06:00:51;;;;;;;17.13;10.93;;;14.80;99.90;;;;;;5061645;28;20215;-52
2022/10/29 06:03:20;;;;;;;18.00;10.57;;;14.80;99.90;;;;;;5070810;28;20239;-53
2022/10/29 06:05:48;;;;;;;12.53;9.63;;;14.90;99.90;;;;;;5070927;28;20566;-53
2022/10/29 06:08:16;;;;;;;15.90;10.37;;;14.90;99.90;;;;;;5071131;28;20198;-53
2022/10/29 06:10:43;;;;;;;17.17;10.60;;;14.90;99.90;;;;;;5071490;28;20773;-53
2022/10/29 06:13:16;;;;;;;17.70;10.53;;;14.90;99.90;;;;;;5070170;28;20197;-54
2022/10/29 06:15:44;;;;;;;16.40;9.70;;;14.90;99.90;;;;;;5070027;28;20659;-55
2022/10/29 06:18:11;;;;;;;20.07;10.43;;;14.90;99.90;;;;;;5070597;28;20571;-54
2022/10/29 06:20:38;;;;;;;17.13;11.50;;;14.90;99.90;;;;;;5070144;28;20203;-55
2022/10/29 06:23:05;;;;;;;15.53;11.17;;;15.00;99.90;;;;;;5069967;28;20333;-53
2022/10/29 06:25:32;;;;;;;18.07;11.07;;;15.00;99.90;;;;;;5070215;28;20228;-54
2022/10/29 06:28:06;;;;;;;17.03;10.17;;;15.00;99.90;;;;;;5070625;28;20230;-54
2022/10/29 06:30:35;;;;;;;17.73;11.57;;;15.10;99.90;;;;;;5070479;28;20672;-53
2022/10/29 06:33:03;;;;;;;17.90;10.90;;;15.10;99.90;;;;;;5071063;28;20208;-54
2022/10/29 06:35:30;;;;;;;19.70;11.80;;;15.10;99.90;;;;;;5070661;28;20377;-55
2022/10/29 06:37:57;;;;;;;18.47;11.10;;;15.20;99.90;;;;;;5070702;28;20294;-54
2022/10/29 06:40:25;;;;;;;21.03;11.40;;;15.10;99.90;;;;;;5069377;28;20231;-54
2022/10/29 06:42:59;;;;;;;22.17;10.90;;;15.20;99.90;;;;;;5070610;28;20218;-54
2022/10/29 06:45:27;;;;;;;18.97;10.47;;;15.20;99.90;;;;;;5069155;28;20210;-54
2022/10/29 06:47:54;;;;;;;15.90;11.40;;;15.20;99.90;;;;;;5071412;28;20562;-54
2022/10/29 06:50:21;;;;;;;17.80;10.47;;;15.20;99.90;;;;;;5069799;28;20321;-54
2022/10/29 06:52:59;;;;;;;19.87;11.00;;;15.30;99.90;;;;;;5070341;28;20211;-54
2022/10/29 06:55:27;;;;;;;21.57;11.47;;;15.20;99.90;;;;;;5068757;28;20201;-54
2022/10/29 06:58:05;;;;;;;17.30;12.57;;;15.30;99.90;;;;;;5070058;28;20290;-55
2022/10/29 07:00:33;;;;;;;24.40;13.03;;;15.30;99.90;;;;;;5069247;28;20198;-53
2022/10/29 07:03:02;;;;;;;17.67;10.60;;;15.30;99.90;;;;;;5068314;28;20265;-59
2022/10/29 07:05:29;;;;;;;20.23;11.30;;;15.30;99.90;;;;;;5059044;28;20323;-53
2022/10/29 07:08:00;;;;;;;16.93;10.40;;;15.30;99.90;;;;;;5069952;28;20206;-54
2022/10/29 07:10:30;;;;;;;17.83;11.13;;;15.30;99.90;;;;;;5068531;28;20223;-56
2022/10/29 07:12:57;;;;;;;19.13;11.57;;;15.30;99.90;;;;;;5069080;28;20232;-53
2022/10/29 07:15:24;;;;;;;17.90;10.93;;;15.30;99.90;;;;;;5068529;28;20204;-54
2022/10/29 07:18:01;;;;;;;13.93;10.10;;;15.30;99.90;;;;;;5068715;28;20232;-54
2022/10/29 07:20:30;;;;;;;18.80;11.77;;;15.40;99.90;;;;;;5069324;28;20232;-55
2022/10/29 07:22:58;;;;;;;17.93;11.60;;;15.40;99.90;;;;;;5069780;28;20558;-53
2022/10/29 07:25:25;;;;;;;17.93;11.10;;;15.40;99.90;;;;;;5058815;28;20285;-55
2022/10/29 07:27:52;;;;;;;21.73;11.93;;;15.40;99.90;;;;;;5069799;28;20197;-55
2022/10/29 07:30:19;;;;;;;23.57;11.80;;;15.50;99.90;;;;;;5067154;28;20206;-56
2022/10/29 07:32:46;;;;;;;19.30;11.37;;;15.50;99.90;;;;;;5068795;28;20828;-55
2022/10/29 07:35:13;;;;;;;22.50;11.50;;;15.50;99.90;;;;;;5068906;28;20236;-55
2022/10/29 07:37:40;;;;;;;22.53;12.27;;;15.60;99.90;;;;;;5069461;28;20292;-54
2022/10/29 07:40:07;;;;;;;22.70;13.00;;;15.60;99.90;;;;;;5067743;28;20598;-54
2022/10/29 07:42:34;;;;;;;21.80;12.03;;;15.60;99.90;;;;;;5069650;28;20288;-55
2022/10/29 07:45:00;;;;;;;16.70;11.37;;;15.70;99.90;;;;;;5067753;28;20751;-54
2022/10/29 07:47:27;;;;;;;20.20;11.87;;;15.80;99.90;;;;;;5067285;28;20597;-58
2022/10/29 07:49:54;;;;;;;22.07;12.33;;;15.80;99.90;;;;;;5068941;28;20197;-58
2022/10/29 07:52:21;;;;;;;16.80;11.57;;;15.80;99.90;;;;;;5068756;28;20203;-55
2022/10/29 07:54:47;;;;;;;19.00;11.30;;;15.90;99.90;;;;;;5068294;28;20205;-54
2022/10/29 07:57:14;;;;;;;18.23;11.77;;;15.90;99.90;;;;;;5068980;28;20255;-54
2022/10/29 07:59:41;;;;;;;22.60;12.50;;;15.90;99.90;;;;;;5066691;28;20896;-61
2022/10/29 08:02:09;;;;;;;24.40;11.37;;;16.00;99.90;;;;;;5069504;28;20201;-56
2022/10/29 08:04:36;;;;;;;21.00;11.50;;;16.20;99.90;;;;;;5069430;28;20311;-55
2022/10/29 08:07:03;;;;;;;18.60;11.27;;;16.30;99.90;;;;;;5068628;28;20217;-60
2022/10/29 08:09:30;;;;;;;23.60;12.37;;;16.40;99.90;;;;;;5066195;28;20285;-54
2022/10/29 08:11:56;;;;;;;19.30;11.80;;;16.50;99.90;;;;;;5067993;28;20667;-54
2022/10/29 08:14:23;;;;;;;18.80;11.23;;;16.40;99.90;;;;;;5068658;28;20231;-54
2022/10/29 08:16:53;;;;;;;16.60;11.73;;;16.50;99.90;;;;;;5066867;28;20662;-55
2022/10/29 08:19:20;;;;;;;17.70;11.13;;;16.50;99.90;;;;;;5068102;28;20236;-55
2022/10/29 08:21:50;;;;;;;20.23;10.70;;;16.50;99.90;;;;;;5068057;28;20734;-55
2022/10/29 08:24:17;;;;;;;25.70;10.83;;;16.50;99.90;;;;;;5065560;28;20233;-56
2022/10/29 08:26:44;;;;;;;25.43;11.63;;;16.50;99.90;;;;;;5065256;28;20202;-55
2022/10/29 08:29:11;;;;;;;22.57;11.03;;;16.50;99.90;;;;;;5068028;28;20197;-55
2022/10/29 08:31:37;;;;;;;19.80;12.13;;;16.50;99.90;;;;;;5067992;28;20209;-54
2022/10/29 08:34:04;;;;;;;16.97;10.13;;;16.50;99.90;;;;;;5066094;28;20213;-56
2022/10/29 08:36:36;;;;;;;22.13;9.93;;;16.60;99.90;;;;;;5068114;28;20613;-56
2022/10/29 08:39:03;;;;;;;19.67;10.93;;;16.90;99.90;;;;;;5067645;28;20663;-55
2022/10/29 08:42:02;;;;;;;19.47;10.47;;;17.30;99.90;;;;;;5068227;28;20525;-56
2022/10/29 08:44:50;;;;;;;18.40;9.37;;;17.40;99.90;;;;;;5058423;28;20251;-53
2022/10/29 08:47:19;;;;;;;20.60;9.73;;;17.40;99.90;;;;;;5067484;28;20213;-53
2022/10/29 08:50:07;;;;;;;15.37;9.87;;;17.40;49.60;;;;;;5069745;28;20219;-54
2022/10/29 08:52:37;;;;;;;18.60;10.30;;;17.30;99.90;;;;;;5068383;28;20211;-54
2022/10/29 08:55:32;;;;;;;16.37;10.00;;;17.40;96.80;;;;;;5064068;28;20214;-54
2022/10/29 08:58:09;;;;;;;16.53;9.83;;;17.30;96.50;;;;;;5069475;28;20277;-54
2022/10/29 09:00:40;;;;;;;15.87;10.13;;;17.30;96.90;;;;;;5066683;28;20203;-54
2022/10/29 09:03:11;;;;;;;14.47;9.40;;;17.20;99.90;;;;;;5067401;28;20234;-53
2022/10/29 09:05:52;;;;;;;15.37;9.77;;;17.30;99.90;;;;;;5067732;28;20221;-54
2022/10/29 09:08:42;;;;;;;18.63;9.70;;;17.30;99.90;;;;;;5068402;28;20205;-54
2022/10/29 09:11:43;;;;;;;13.40;9.73;;;17.40;99.90;;;;;;5060880;28;20220;-54
2022/10/29 09:14:24;;;;;;;17.50;9.77;;;17.40;90.00;;;;;;5065659;28;20222;-55
2022/10/29 09:17:09;;;;;;;15.93;9.57;;;17.40;72.60;;;;;;5067464;28;20214;-55
2022/10/29 09:19:59;;;;;;;13.17;9.80;;;17.40;1.00;;;;;;5067560;28;20229;-54
2022/10/29 09:22:57;;;;;;;12.30;9.67;;;17.50;20.50;;;;;;5064452;28;20195;-54
2022/10/29 09:25:36;;;;;;;15.37;10.00;;;17.50;1.00;;;;;;5076303;28;20217;-54
2022/10/29 09:28:21;;;;;;;20.27;9.50;;;17.60;1.00;;;;;;5067341;28;20248;-54
2022/10/29 09:31:11;;;;;;;13.63;9.93;;;17.60;1.00;;;;;;5065290;28;20205;-54
2022/10/29 09:33:38;;;;;;;12.50;8.90;;;17.60;1.00;;;;;;5082601;28;20206;-53
2022/10/29 09:36:16;;;;;;;16.43;10.40;;;17.60;1.00;;;;;;5067369;28;20294;-53
2022/10/29 09:39:10;;;;;;;14.03;9.27;;;17.60;1.00;;;;;;5067580;28;20674;-54
2022/10/29 09:41:38;;;;;;;14.80;9.07;;;17.60;1.00;;;;;;5067103;28;20203;-55
2022/10/29 09:44:05;;;;;;;14.03;9.50;;;17.60;1.00;;;;;;5060203;28;20215;-53
2022/10/29 09:46:59;;;;;;;20.17;9.87;;;17.60;1.00;;;;;;5072943;28;20488;-56
2022/10/29 09:49:40;;;;;;;23.13;9.53;;;17.60;1.00;;;;;;5066441;28;20212;-55
2022/10/29 09:52:23;;;;;;;15.53;9.00;;;17.70;1.00;;;;;;5067423;28;20203;-54
2022/10/29 09:54:53;;;;;;;13.47;9.37;;;17.70;1.00;;;;;;5063611;28;20271;-54
2022/10/29 09:57:28;;;;;;;16.77;9.33;;;17.70;1.00;;;;;;5070681;28;20203;-54
2022/10/29 09:59:59;;;;;;;18.23;10.20;;;17.80;1.00;;;;;;5069801;28;20197;-59
2022/10/29 10:02:43;;;;;;;17.53;9.13;;;17.80;1.00;;;;;;5070011;28;20273;-54
2022/10/29 10:05:13;;;;;;;15.80;8.73;;;17.90;1.00;;;;;;5070426;28;20217;-54
2022/10/29 10:07:41;;;;;;;16.63;9.07;;;17.90;1.00;;;;;;5076349;28;20202;-56
2022/10/29 10:10:20;;;;;;;16.43;8.80;;;18.00;1.00;;;;;;5072478;28;20318;-56
2022/10/29 10:12:49;;;;;;;13.47;8.73;;;18.10;1.00;;;;;;5070658;28;20704;-54
2022/10/29 10:15:15;;;;;;;13.20;7.83;;;18.20;1.00;;;;;;5069079;28;20286;-54
2022/10/29 10:18:01;;;;;;;16.53;8.97;;;18.50;99.90;;;;;;5071408;28;20741;-55
2022/10/29 10:20:35;;;;;;;12.33;7.73;;;18.80;99.90;;;;;;5070735;28;20204;-55
2022/10/29 10:23:21;;;;;;;13.93;7.80;;;18.90;99.90;;;;;;5065828;28;20234;-54
2022/10/29 10:25:48;;;;;;;14.43;7.63;;;19.00;1.00;;;;;;5070499;28;20239;-55
2022/10/29 10:28:23;;;;;;;13.70;7.67;;;19.10;99.90;;;;;;5070591;28;20303;-56
2022/10/29 10:31:25;;;;;;;19.40;9.20;;;19.30;1.00;;;;;;5069732;28;20581;-54
2022/10/29 10:33:54;;;;;;;16.87;8.00;;;19.60;1.00;;;;;;5004707;28;20207;-54
2022/10/29 10:36:24;;;;;;;12.83;6.87;;;19.80;1.00;;;;;;5007555;28;20702;-55
2022/10/29 10:38:59;;;;;;;12.13;6.80;;;20.20;1.00;;;;;;5007681;28;20235;-54
2022/10/29 10:41:33;;;;;;;14.83;6.40;;;20.50;1.00;;;;;;5006670;28;20672;-52
2022/10/29 10:44:02;;;;;;;10.80;6.20;;;20.60;1.00;;;;;;5006712;28;20736;-53
2022/10/29 10:46:37;;;;;;;13.80;6.43;;;20.90;1.00;;;;;;5007542;28;20285;-52
2022/10/29 10:49:35;;;;;;;14.57;5.63;;;21.20;99.90;;;;;;5007032;28;20625;-52
2022/10/29 10:52:05;;;;;;;12.27;6.37;;;21.10;95.20;;;;;;4988428;28;20228;-54
2022/10/29 10:54:45;;;;;;;9.87;5.13;;;21.30;99.90;;;;;;5006851;28;20213;-53
2022/10/29 10:57:13;;;;;;;11.27;5.00;;;21.20;99.90;;;;;;5007353;28;20288;-54
2022/10/29 10:59:58;;;;;;;10.27;5.20;;;21.30;1.00;;;;;;5006562;28;20617;-54
2022/10/29 11:02:38;;;;;;;12.70;5.27;;;21.70;1.00;;;;;;5006990;28;20319;-53
2022/10/29 11:05:17;;;;;;;10.47;4.60;;;21.80;1.00;;;;;;5006542;28;20229;-54
2022/10/29 11:08:10;;;;;;;14.77;5.00;;;21.80;1.00;;;;;;5033554;28;20563;-54
2022/10/29 11:10:50;;;;;;;13.90;4.80;;;22.00;1.00;;;;;;5057639;28;20239;-54
2022/10/29 11:13:21;;;;;;;10.50;4.00;;;22.00;99.90;;;;;;5067795;28;20203;-53
2022/10/29 11:15:51;;;;;;;11.97;4.70;;;21.90;99.90;;;;;;5068784;28;20282;-53
2022/10/29 11:18:35;;;;;;;11.33;4.00;;;21.80;99.90;;;;;;5069295;28;20253;-54
2022/10/29 11:21:23;;;;;;;7.47;4.00;;;21.60;99.90;;;;;;5069092;28;20293;-54
2022/10/29 11:24:05;;;;;;;10.17;4.50;;;21.50;99.90;;;;;;5063875;28;20216;-54
2022/10/29 11:27:07;;;;;;;9.80;4.37;;;21.70;99.90;;;;;;5080636;28;20214;-53
2022/10/29 11:29:40;;;;;;;7.43;3.53;;;21.70;99.90;;;;;;4990533;28;20598;-54
2022/10/29 11:32:21;;;;;;;9.87;4.13;;;22.00;99.90;;;;;;5068845;28;20593;-54
2022/10/29 11:34:55;;;;;;;8.33;3.80;;;22.00;99.90;;;;;;5073845;28;20198;-54
2022/10/29 11:37:34;;;;;;;14.50;5.47;;;22.10;99.90;;;;;;5069676;28;20564;-54
2022/10/29 11:40:18;;;;;;;10.33;3.87;;;22.20;99.90;;;;;;5062478;28;20536;-53
2022/10/29 11:42:45;;;;;;;7.87;3.67;;;22.40;99.90;;;;;;5068999;28;20214;-54
2022/10/29 11:45:38;;;;;;;10.07;3.33;;;22.50;70.30;;;;;;5061398;28;20702;-55
2022/10/29 11:48:15;;;;;;;11.47;3.73;;;22.50;1.00;;;;;;5068411;28;20218;-53
2022/10/29 11:51:22;;;;;;;10.23;3.33;;;22.40;1.00;;;;;;5068552;28;20556;-53
2022/10/29 11:54:20;;;;;;;13.60;4.70;;;22.70;1.00;;;;;;5031158;28;20593;-53
2022/10/29 11:56:53;;;;;;;10.03;3.60;;;23.20;1.00;;;;;;5068371;28;20205;-53
2022/10/29 11:59:38;;;;;;;9.30;3.63;;;23.70;1.00;;;;;;5067671;28;20207;-53
2022/10/29 12:02:51;;;;;;;8.73;3.33;;;24.10;1.00;;;;;;5067089;28;20207;-54
2022/10/29 12:05:36;;;;;;;15.10;4.93;;;24.50;1.00;;;;;;5052462;28;20223;-54
2022/10/29 12:08:23;;;;;;;6.00;3.30;;;24.50;1.00;;;;;;5073279;28;20203;-54
2022/10/29 12:10:58;;;;;;;10.73;3.47;;;24.50;99.90;;;;;;5067834;28;20218;-54
2022/10/29 12:13:51;;;;;;;7.73;3.17;;;24.90;99.90;;;;;;5067488;28;20222;-53
2022/10/29 12:16:42;;;;;;;12.00;3.10;;;25.20;99.90;;;;;;5066825;28;20646;-54
2022/10/29 12:19:25;;;;;;;7.50;3.23;;;25.60;99.90;;;;;;5067067;28;20202;-54
2022/10/29 12:21:58;;;;;;;10.20;3.07;;;25.50;99.90;;;;;;5067922;28;20201;-54
2022/10/29 12:24:38;;;;;;;6.97;3.53;;;26.00;99.90;;;;;;5067345;28;20281;-54
2022/10/29 12:27:26;;;;;;;11.87;3.63;;;26.50;99.90;;;;;;5067379;28;20208;-53
2022/10/29 12:30:01;;;;;;;10.43;3.80;;;26.80;40.10;;;;;;5062715;28;20207;-55
2022/10/29 12:32:42;;;;;;;8.80;3.37;;;26.80;44.00;;;;;;5068385;28;20663;-54
2022/10/29 12:35:28;;;;;;;7.27;3.53;;;26.50;17.00;;;;;;5082170;28;20197;-59
2022/10/29 12:38:29;;;;;;;9.00;3.60;;;26.70;53.40;;;;;;5064175;28;20262;-54
2022/10/29 12:41:16;;;;;;;11.23;3.97;;;27.00;1.00;;;;;;5068464;28;20537;-54
2022/10/29 12:43:43;;;;;;;9.17;3.70;;;26.80;10.80;;;;;;5063845;28;20311;-54
2022/10/29 12:46:34;;;;;;;9.47;3.60;;;27.00;53.30;;;;;;5066515;28;20696;-54
2022/10/29 12:49:17;;;;;;;8.47;3.40;;;26.90;1.00;;;;;;5066645;28;20583;-54
2022/10/29 12:52:15;;;;;;;13.40;3.70;;;26.80;1.00;;;;;;5078679;28;20207;-53
2022/10/29 12:54:44;;;;;;;10.80;3.13;;;27.00;35.80;;;;;;5061101;28;20602;-54
2022/10/29 12:57:11;;;;;;;5.93;3.10;;;26.90;1.00;;;;;;5067182;28;20257;-54
2022/10/29 12:59:40;;;;;;;10.53;3.43;;;26.70;1.00;;;;;;5066885;28;20564;-53
2022/10/29 13:02:26;;;;;;;8.67;3.13;;;26.90;1.00;;;;;;5066921;28;20209;-54
2022/10/29 13:05:25;;;;;;;7.40;3.13;;;26.70;11.70;;;;;;5066607;28;20300;-52
2022/10/29 13:08:03;;;;;;;11.03;3.30;;;26.70;1.00;;;;;;5040080;28;20212;-52
2022/10/29 13:10:33;;;;;;;8.57;3.43;;;26.50;6.50;;;;;;5064353;28;20330;-53